createdAt,value
2019-04-25T00:01:09.139Z,0.88
2019-04-25T00:03:40.426Z,0.82
2019-04-25T00:06:10.300Z,0.80
2019-04-25T00:08:38.828Z,0.70
2019-04-25T00:11:07.438Z,0.70
2019-04-25T00:13:35.996Z,0.72
2019-04-25T00:16:04.758Z,0.70
2019-04-25T00:18:33.173Z,0.78
2019-04-25T00:21:03.630Z,0.80
2019-04-25T00:23:32.112Z,0.80
2019-04-25T00:26:04.991Z,0.80
2019-04-25T00:28:33.540Z,0.70
2019-04-25T00:31:02.503Z,0.90
2019-04-25T00:33:31.562Z,0.72
2019-04-25T00:36:02.030Z,0.70
2019-04-25T00:38:31.812Z,0.82
2019-04-25T00:41:01.676Z,0.72
2019-04-25T00:43:31.481Z,1.10
2019-04-25T00:46:01.508Z,0.60
2019-04-25T00:48:31.598Z,0.75
2019-04-25T00:51:01.758Z,0.85
2019-04-25T00:53:32.196Z,0.70
2019-04-25T00:56:01.495Z,0.65
2019-04-25T00:58:37.780Z,0.60
2019-04-25T01:01:17.103Z,0.85
2019-04-25T01:03:45.991Z,0.80
2019-04-25T01:06:14.646Z,0.70
2019-04-25T01:08:43.365Z,0.70
2019-04-25T01:11:12.771Z,0.60
2019-04-25T01:13:42.279Z,0.88
2019-04-25T01:16:11.986Z,0.70
2019-04-25T01:18:40.537Z,0.90
2019-04-25T01:21:09.047Z,0.80
2019-04-25T01:23:37.600Z,0.72
2019-04-25T01:26:06.243Z,0.60
2019-04-25T01:28:35.556Z,0.90
2019-04-25T01:31:05.754Z,0.72
2019-04-25T01:33:34.334Z,0.70
2019-04-25T01:36:04.386Z,0.80
2019-04-25T01:38:34.528Z,0.60
2019-04-25T01:41:04.728Z,0.70
2019-04-25T01:43:37.987Z,0.90
2019-04-25T01:46:06.473Z,0.70
2019-04-25T01:48:34.895Z,0.70
2019-04-25T01:51:04.093Z,0.85
2019-04-25T01:53:33.884Z,0.90
2019-04-25T01:56:07.253Z,0.70
2019-04-25T01:58:33.755Z,1.10
2019-04-25T02:01:03.149Z,1.20
2019-04-25T02:03:34.263Z,0.80
2019-04-25T02:06:04.928Z,0.70
2019-04-25T02:08:34.044Z,0.78
2019-04-25T02:11:04.744Z,0.60
2019-04-25T02:13:33.667Z,0.60
2019-04-25T02:16:05.279Z,0.70
2019-04-25T02:18:33.822Z,0.60
2019-04-25T02:21:04.120Z,0.65
2019-04-25T02:23:34.008Z,0.60
2019-04-25T02:26:12.651Z,0.60
2019-04-25T02:28:33.846Z,0.70
2019-04-25T02:31:07.818Z,0.68
2019-04-25T02:33:34.056Z,0.70
2019-04-25T02:36:08.272Z,0.68
2019-04-25T02:38:34.202Z,0.80
2019-04-25T02:41:06.898Z,0.62
2019-04-25T02:43:35.089Z,0.50
2019-04-25T02:46:08.139Z,0.70
2019-04-25T02:48:50.340Z,0.50
2019-04-25T02:51:24.350Z,0.60
2019-04-25T02:53:59.666Z,0.70
2019-04-25T02:56:34.538Z,0.60
2019-04-25T02:58:58.527Z,0.90
2019-04-25T03:01:27.236Z,0.60
2019-04-25T03:03:57.429Z,0.55
2019-04-25T03:06:26.000Z,0.90
2019-04-25T03:08:54.767Z,0.60
2019-04-25T03:11:24.486Z,0.80
2019-04-25T03:13:54.603Z,1.00
2019-04-25T03:16:25.152Z,0.68
2019-04-25T03:18:55.451Z,0.80
2019-04-25T03:21:28.388Z,0.80
2019-04-25T03:23:56.989Z,0.70
2019-04-25T03:26:25.405Z,0.78
2019-04-25T03:28:53.889Z,0.88
2019-04-25T03:31:26.558Z,0.70
2019-04-25T03:33:55.569Z,0.80
2019-04-25T03:36:23.831Z,0.60
2019-04-25T03:38:54.046Z,0.80
2019-04-25T03:41:24.406Z,0.85
2019-04-25T03:43:54.189Z,0.75
2019-04-25T03:46:23.325Z,1.00
2019-04-25T03:48:51.889Z,0.90
2019-04-25T03:51:20.412Z,0.95
2019-04-25T03:53:48.962Z,0.90
2019-04-25T03:56:18.279Z,0.82
2019-04-25T03:58:46.718Z,0.72
2019-04-25T04:01:15.686Z,0.70
2019-04-25T04:03:44.254Z,0.82
2019-04-25T04:06:14.255Z,0.90
2019-04-25T04:08:44.250Z,1.20
2019-04-25T04:11:14.540Z,0.70
2019-04-25T04:13:44.082Z,1.02
2019-04-25T04:16:14.690Z,1.00
2019-04-25T04:18:45.445Z,1.10
2019-04-25T04:21:16.286Z,0.80
2019-04-25T04:23:57.280Z,1.17
2019-04-25T04:26:25.978Z,1.15
2019-04-25T04:28:54.437Z,1.00
2019-04-25T04:31:23.570Z,1.00
2019-04-25T04:33:53.083Z,0.90
2019-04-25T04:36:21.679Z,1.30
2019-04-25T04:38:50.222Z,1.30
2019-04-25T04:41:18.646Z,1.20
2019-04-25T04:43:47.138Z,1.17
2019-04-25T04:46:18.238Z,1.00
2019-04-25T04:48:45.754Z,1.10
2019-04-25T04:51:14.904Z,1.10
2019-04-25T04:53:44.205Z,1.07
2019-04-25T04:56:15.078Z,1.27
2019-04-25T04:58:43.271Z,1.00
2019-04-25T05:01:13.038Z,0.85
2019-04-25T05:03:46.437Z,0.78
2019-04-25T05:06:17.350Z,1.00
2019-04-25T05:08:50.423Z,1.10
2019-04-25T05:11:19.843Z,1.37
2019-04-25T05:13:48.325Z,1.37
2019-04-25T05:16:17.675Z,1.30
2019-04-25T05:18:46.139Z,1.10
2019-04-25T05:21:15.792Z,1.30
2019-04-25T05:23:45.149Z,1.10
2019-04-25T05:26:15.990Z,0.85
2019-04-25T05:28:44.506Z,1.10
2019-04-25T05:31:25.500Z,1.32
2019-04-25T05:33:53.853Z,0.90
2019-04-25T05:36:23.591Z,1.02
2019-04-25T05:38:53.908Z,1.10
2019-04-25T05:41:33.775Z,1.30
2019-04-25T05:44:04.487Z,1.30
2019-04-25T05:46:34.130Z,1.10
2019-04-25T05:49:03.490Z,1.15
2019-04-25T05:51:33.832Z,1.15
2019-04-25T05:54:04.067Z,1.30
2019-04-25T05:56:33.809Z,0.90
2019-04-25T05:59:03.367Z,1.15
2019-04-25T06:01:35.589Z,1.20
2019-04-25T06:04:05.187Z,1.12
2019-04-25T06:06:36.188Z,0.78
2019-04-25T06:09:04.909Z,1.30
2019-04-25T06:11:34.996Z,1.20
2019-04-25T06:14:08.024Z,1.20
2019-04-25T06:16:38.177Z,1.00
2019-04-25T06:19:14.301Z,1.27
2019-04-25T06:21:38.898Z,1.32
2019-04-25T06:24:14.963Z,1.05
2019-04-25T06:26:45.601Z,1.00
2019-04-25T06:29:14.048Z,1.22
2019-04-25T06:31:43.920Z,1.50
2019-04-25T06:34:14.034Z,1.35
2019-04-25T06:36:44.049Z,1.67
2019-04-25T06:39:14.088Z,1.00
2019-04-25T06:41:44.147Z,1.12
2019-04-25T06:44:14.436Z,1.30
2019-04-25T06:46:59.804Z,1.10
2019-04-25T06:49:29.973Z,1.50
2019-04-25T06:51:58.388Z,1.10
2019-04-25T06:54:28.043Z,1.32
2019-04-25T06:56:56.601Z,0.85
2019-04-25T06:59:26.569Z,1.15
2019-04-25T07:01:56.193Z,1.00
2019-04-25T07:04:26.442Z,0.90
2019-04-25T07:06:55.439Z,1.17
2019-04-25T07:09:26.843Z,0.98
2019-04-25T07:11:54.289Z,1.02
2019-04-25T07:14:24.836Z,1.00
2019-04-25T07:16:53.321Z,0.78
2019-04-25T07:19:21.865Z,0.95
2019-04-25T07:21:50.361Z,0.72
2019-04-25T07:24:18.893Z,1.00
2019-04-25T07:27:05.733Z,0.82
2019-04-25T07:29:43.335Z,0.75
2019-04-25T07:32:14.464Z,0.72
2019-04-25T07:34:43.860Z,1.00
2019-04-25T07:37:13.248Z,0.80
2019-04-25T07:39:41.951Z,0.70
2019-04-25T07:42:10.398Z,0.80
2019-04-25T07:44:49.809Z,1.02
2019-04-25T07:47:09.396Z,0.80
2019-04-25T07:49:38.009Z,0.70
2019-04-25T07:52:06.563Z,0.82
2019-04-25T07:54:35.509Z,1.00
2019-04-25T07:57:05.351Z,1.20
2019-04-25T07:59:35.118Z,1.05
2019-04-25T08:02:04.213Z,0.70
2019-04-25T08:04:34.838Z,1.07
2019-04-25T08:07:04.160Z,1.20
2019-04-25T08:09:34.206Z,0.70
2019-04-25T08:12:03.443Z,0.70
2019-04-25T08:14:34.189Z,0.88
2019-04-25T08:17:11.957Z,0.80
2019-04-25T08:19:40.646Z,0.80
2019-04-25T08:22:09.057Z,0.88
2019-04-25T08:24:40.353Z,0.70
2019-04-25T08:27:08.843Z,0.88
2019-04-25T08:29:39.498Z,1.00
2019-04-25T08:32:07.726Z,0.57
2019-04-25T08:34:37.221Z,0.68
2019-04-25T08:37:17.367Z,0.60
2019-04-25T08:39:38.129Z,0.90
2019-04-25T08:42:06.299Z,0.90
2019-04-25T08:44:35.717Z,1.20
2019-04-25T08:47:04.639Z,0.90
2019-04-25T08:49:49.351Z,0.80
2019-04-25T08:52:17.115Z,0.50
2019-04-25T08:54:50.181Z,0.42
2019-04-25T08:57:23.622Z,0.50
2019-04-25T08:59:58.116Z,0.40
2019-04-25T09:02:28.186Z,0.42
2019-04-25T09:04:58.298Z,0.40
2019-04-25T09:07:26.724Z,0.50
2019-04-25T09:09:55.336Z,0.40
2019-04-25T09:12:24.101Z,0.40
2019-04-25T09:14:54.220Z,0.40
2019-04-25T09:17:24.312Z,0.40
2019-04-25T09:19:54.176Z,0.50
2019-04-25T09:22:24.251Z,0.50
2019-04-25T09:24:53.970Z,0.40
2019-04-25T09:27:23.512Z,0.50
2019-04-25T09:29:52.162Z,0.50
2019-04-25T09:32:20.641Z,0.50
2019-04-25T09:34:49.959Z,0.47
2019-04-25T09:37:18.781Z,0.40
2019-04-25T09:39:58.223Z,0.45
2019-04-25T09:42:26.722Z,0.50
2019-04-25T09:45:13.333Z,0.30
2019-04-25T09:47:45.758Z,0.40
2019-04-25T09:50:31.121Z,0.40
2019-04-25T09:52:59.574Z,0.40
2019-04-25T09:55:29.793Z,0.50
2019-04-25T09:58:09.450Z,0.60
2019-04-25T10:00:43.603Z,0.45
2019-04-25T10:03:13.558Z,0.57
2019-04-25T10:05:42.683Z,0.62
2019-04-25T10:08:13.359Z,0.50
2019-04-25T10:10:42.461Z,0.37
2019-04-25T10:13:11.072Z,0.60
2019-04-25T10:15:48.495Z,0.70
2019-04-25T10:18:17.026Z,0.45
2019-04-25T10:20:47.507Z,0.42
2019-04-25T10:23:16.596Z,0.60
2019-04-25T10:25:46.487Z,0.40
2019-04-25T10:28:15.038Z,0.50
2019-04-25T10:30:43.572Z,0.50
2019-04-25T10:33:14.201Z,0.40
2019-04-25T10:35:50.666Z,0.50
2019-04-25T10:38:14.433Z,0.30
2019-04-25T10:40:46.100Z,0.47
2019-04-25T10:43:15.818Z,0.47
2019-04-25T10:45:46.347Z,0.40
2019-04-25T10:48:15.817Z,0.50
2019-04-25T10:50:45.950Z,0.50
2019-04-25T10:53:14.632Z,0.55
2019-04-25T10:55:43.205Z,0.55
2019-04-25T10:58:11.794Z,0.60
2019-04-25T11:00:42.308Z,0.55
2019-04-25T11:03:26.448Z,0.50
2019-04-25T11:05:55.910Z,0.50
2019-04-25T11:08:24.743Z,0.60
2019-04-25T11:10:54.892Z,0.62
2019-04-25T11:13:23.504Z,0.57
2019-04-25T11:15:52.075Z,0.78
2019-04-25T11:18:20.790Z,0.65
2019-04-25T11:20:50.386Z,0.95
2019-04-25T11:23:18.888Z,0.88
2019-04-25T11:25:47.556Z,0.80
2019-04-25T11:28:16.618Z,0.60
2019-04-25T11:30:47.453Z,0.50
2019-04-25T11:33:16.511Z,0.68
2019-04-25T11:35:46.828Z,0.60
2019-04-25T11:38:16.829Z,0.60
2019-04-25T11:40:51.289Z,0.70
2019-04-25T11:43:20.103Z,0.50
2019-04-25T11:45:49.247Z,0.68
2019-04-25T11:48:17.947Z,0.55
2019-04-25T11:50:49.946Z,0.40
2019-04-25T11:53:16.945Z,0.60
2019-04-25T11:55:47.773Z,0.55
2019-04-25T11:58:15.778Z,0.65
2019-04-25T12:00:46.248Z,0.60
2019-04-25T12:03:15.607Z,0.50
2019-04-25T12:05:45.835Z,1.07
2019-04-25T12:08:14.451Z,0.88
2019-04-25T12:10:45.493Z,0.68
2019-04-25T12:13:13.376Z,0.60
2019-04-25T12:15:45.771Z,0.60
2019-04-25T12:18:13.789Z,0.60
2019-04-25T12:20:44.057Z,0.80
2019-04-25T12:23:14.304Z,1.10
2019-04-25T12:25:45.301Z,1.80
2019-04-25T12:28:14.145Z,1.00
2019-04-25T12:30:43.897Z,0.80
2019-04-25T12:33:21.190Z,0.90
2019-04-25T12:35:43.816Z,0.90
2019-04-25T12:38:13.993Z,0.75
2019-04-25T12:40:43.404Z,0.88
2019-04-25T12:43:13.752Z,0.65
2019-04-25T12:45:45.665Z,0.60
2019-04-25T12:48:15.932Z,1.15
2019-04-25T12:50:44.360Z,0.80
2019-04-25T12:53:13.902Z,0.62
2019-04-25T12:55:44.176Z,0.70
2019-04-25T12:58:13.525Z,0.70
2019-04-25T13:00:49.531Z,0.85
2019-04-25T13:03:14.154Z,0.90
2019-04-25T13:05:44.237Z,1.00
2019-04-25T13:08:14.333Z,0.80
2019-04-25T13:10:44.533Z,0.72
2019-04-25T13:13:14.999Z,0.88
2019-04-25T13:15:45.867Z,0.70
2019-04-25T13:18:13.627Z,0.62
2019-04-25T13:20:42.057Z,0.68
2019-04-25T13:23:10.670Z,0.72
2019-04-25T13:25:39.162Z,0.85
2019-04-25T13:28:15.269Z,0.65
2019-04-25T13:31:05.890Z,0.60
2019-04-25T13:33:34.936Z,0.70
2019-04-25T13:36:05.072Z,0.60
2019-04-25T13:38:33.663Z,0.60
2019-04-25T13:41:02.093Z,0.85
2019-04-25T13:43:30.702Z,1.25
2019-04-25T13:45:59.451Z,1.00
2019-04-25T13:48:28.081Z,0.90
2019-04-25T13:50:56.678Z,0.80
2019-04-25T13:53:25.698Z,0.68
2019-04-25T13:55:54.338Z,0.62
2019-04-25T13:58:24.241Z,0.50
2019-04-25T14:00:53.288Z,0.70
2019-04-25T14:03:22.993Z,0.60
2019-04-25T14:05:51.572Z,0.90
2019-04-25T14:08:20.880Z,0.80
2019-04-25T14:10:49.569Z,0.80
2019-04-25T14:13:18.240Z,0.70
2019-04-25T14:15:48.447Z,0.50
2019-04-25T14:18:21.879Z,0.65
2019-04-25T14:21:09.022Z,0.68
2019-04-25T14:23:37.693Z,0.72
2019-04-25T14:26:06.496Z,0.90
2019-04-25T14:28:35.490Z,0.62
2019-04-25T14:31:04.814Z,0.60
2019-04-25T14:33:35.293Z,0.80
2019-04-25T14:36:03.924Z,0.90
2019-04-25T14:38:33.797Z,0.60
2019-04-25T14:41:02.481Z,0.40
2019-04-25T14:43:31.157Z,0.95
2019-04-25T14:45:59.985Z,1.10
2019-04-25T14:48:29.371Z,0.72
2019-04-25T14:50:57.862Z,0.70
2019-04-25T14:53:26.361Z,0.68
2019-04-25T14:55:59.053Z,0.60
2019-04-25T14:58:29.133Z,0.60
2019-04-25T15:00:57.708Z,1.10
2019-04-25T15:03:26.200Z,1.10
2019-04-25T15:05:54.804Z,0.80
2019-04-25T15:08:23.979Z,0.88
2019-04-25T15:10:54.987Z,0.90
2019-04-25T15:13:24.235Z,0.70
2019-04-25T15:15:52.752Z,0.85
2019-04-25T15:18:21.207Z,0.60
2019-04-25T15:20:50.010Z,0.85
2019-04-25T15:23:18.484Z,1.05
2019-04-25T15:25:46.921Z,0.70
2019-04-25T15:28:15.485Z,0.65
2019-04-25T15:30:44.068Z,0.80
2019-04-25T15:33:12.576Z,0.88
2019-04-25T15:35:42.786Z,0.90
2019-04-25T15:38:31.430Z,0.60
2019-04-25T15:41:04.611Z,0.85
2019-04-25T15:43:43.677Z,0.70
2019-04-25T15:46:19.801Z,0.75
2019-04-25T15:48:48.311Z,0.57
2019-04-25T15:51:16.901Z,0.60
2019-04-25T15:53:45.335Z,0.60
2019-04-25T15:56:13.882Z,0.90
2019-04-25T15:58:42.431Z,0.80
2019-04-25T16:01:11.621Z,0.53
2019-04-25T16:03:41.025Z,0.80
2019-04-25T16:06:09.692Z,0.78
2019-04-25T16:08:38.199Z,0.90
2019-04-25T16:11:06.791Z,0.95
2019-04-25T16:13:35.497Z,1.30
2019-04-25T16:16:04.062Z,1.22
2019-04-25T16:18:33.163Z,1.65
2019-04-25T16:21:01.801Z,1.05
2019-04-25T16:23:30.329Z,0.70
2019-04-25T16:25:58.900Z,0.72
2019-04-25T16:28:27.559Z,1.00
2019-04-25T16:30:56.315Z,0.60
2019-04-25T16:33:24.808Z,0.88
2019-04-25T16:35:53.258Z,1.07
2019-04-25T16:38:21.753Z,0.70
2019-04-25T16:40:50.344Z,0.85
2019-04-25T16:43:20.527Z,0.70
2019-04-25T16:45:49.166Z,0.93
2019-04-25T16:48:17.852Z,0.78
2019-04-25T16:50:46.421Z,1.10
2019-04-25T16:53:15.085Z,1.00
2019-04-25T16:55:43.621Z,0.70
2019-04-25T16:58:12.318Z,0.55
2019-04-25T17:00:42.460Z,0.80
2019-04-25T17:03:11.940Z,1.00
2019-04-25T17:05:40.542Z,2.02
2019-04-25T17:08:09.331Z,0.68
2019-04-25T17:10:37.974Z,1.05
2019-04-25T17:13:07.219Z,0.70
2019-04-25T17:15:38.365Z,0.90
2019-04-25T17:18:08.566Z,0.70
2019-04-25T17:20:39.664Z,0.60
2019-04-25T17:23:08.683Z,0.60
2019-04-25T17:25:37.331Z,0.75
2019-04-25T17:28:05.770Z,0.60
2019-04-25T17:30:36.243Z,0.65
2019-04-25T17:33:06.487Z,0.60
2019-04-25T17:35:36.768Z,0.55
2019-04-25T17:38:07.189Z,0.80
2019-04-25T17:40:35.866Z,0.70
2019-04-25T17:43:11.023Z,0.60
2019-04-25T17:45:34.841Z,0.80
2019-04-25T17:48:04.217Z,0.50
2019-04-25T17:50:32.988Z,0.70
2019-04-25T17:53:01.854Z,0.65
2019-04-25T17:55:30.299Z,0.75
2019-04-25T17:57:58.787Z,0.40
2019-04-25T18:00:35.310Z,0.47
2019-04-25T18:03:06.054Z,0.50
2019-04-25T18:05:35.255Z,0.40
2019-04-25T18:08:04.188Z,0.70
2019-04-25T18:10:34.144Z,0.70
2019-04-25T18:13:03.076Z,0.53
2019-04-25T18:15:33.307Z,0.50
2019-04-25T18:18:03.384Z,0.60
2019-04-25T18:20:39.546Z,0.40
2019-04-25T18:23:09.773Z,0.50
2019-04-25T18:25:45.721Z,0.60
2019-04-25T18:28:21.850Z,0.90
2019-04-25T18:30:50.398Z,0.57
2019-04-25T18:33:20.475Z,0.60
2019-04-25T18:35:50.627Z,0.60
2019-04-25T18:38:20.692Z,1.25
2019-04-25T18:40:51.108Z,1.82
2019-04-25T18:43:21.204Z,2.08
2019-04-25T18:45:52.416Z,2.00
2019-04-25T18:48:20.962Z,1.90
2019-04-25T18:50:49.465Z,2.00
2019-04-25T18:53:37.711Z,1.50
2019-04-25T18:56:19.590Z,1.30
2019-04-25T18:58:52.741Z,1.40
2019-04-25T19:01:22.913Z,1.72
2019-04-25T19:03:55.862Z,1.50
2019-04-25T19:06:26.030Z,1.20
2019-04-25T19:08:54.615Z,1.30
2019-04-25T19:11:23.054Z,1.20
2019-04-25T19:13:51.755Z,1.15
2019-04-25T19:16:20.406Z,1.20
2019-04-25T19:18:48.830Z,1.20
2019-04-25T19:21:17.353Z,1.07
2019-04-25T19:23:46.121Z,1.00
2019-04-25T19:26:14.596Z,1.77
2019-04-25T19:28:43.011Z,1.30
2019-04-25T19:31:11.634Z,1.00
2019-04-25T19:33:40.669Z,1.10
2019-04-25T19:36:10.269Z,1.67
2019-04-25T19:38:39.588Z,1.30
2019-04-25T19:41:10.741Z,1.62
2019-04-25T19:43:41.002Z,1.30
2019-04-25T19:46:09.517Z,1.60
2019-04-25T19:48:37.931Z,1.20
2019-04-25T19:51:06.568Z,1.20
2019-04-25T19:53:35.066Z,1.42
2019-04-25T19:56:03.660Z,1.40
2019-04-25T19:58:32.112Z,1.27
2019-04-25T20:01:00.541Z,1.32
2019-04-25T20:03:53.436Z,1.60
2019-04-25T20:06:18.758Z,1.57
2019-04-25T20:08:48.936Z,1.50
2019-04-25T20:11:21.482Z,1.60
2019-04-25T20:13:49.972Z,1.25
2019-04-25T20:16:18.399Z,1.70
2019-04-25T20:18:47.719Z,1.92
2019-04-25T20:21:16.330Z,1.30
2019-04-25T20:23:46.353Z,1.82
2019-04-25T20:26:14.900Z,2.70
2019-04-25T20:28:44.869Z,1.80
2019-04-25T20:31:13.462Z,1.50
2019-04-25T20:33:41.987Z,1.92
2019-04-25T20:36:17.512Z,1.82
2019-04-25T20:38:40.647Z,1.50
2019-04-25T20:41:09.127Z,1.40
2019-04-25T20:43:37.707Z,1.82
2019-04-25T20:46:06.454Z,1.45
2019-04-25T20:48:34.999Z,1.42
2019-04-25T20:51:03.586Z,1.82
2019-04-25T20:53:32.121Z,2.92
2019-04-25T20:56:00.581Z,2.75
2019-04-25T20:58:29.160Z,2.02
2019-04-25T21:00:59.304Z,2.00
2019-04-25T21:03:27.779Z,1.62
2019-04-25T21:05:57.951Z,2.95
2019-04-25T21:08:26.404Z,2.47
2019-04-25T21:10:55.647Z,1.82
2019-04-25T21:13:26.103Z,2.22
2019-04-25T21:15:56.260Z,1.60
2019-04-25T21:18:26.350Z,1.50
2019-04-25T21:20:55.016Z,1.70
2019-04-25T21:23:23.526Z,2.20
2019-04-25T21:25:52.937Z,1.42
2019-04-25T21:28:21.593Z,1.77
2019-04-25T21:30:51.242Z,1.62
2019-04-25T21:33:19.838Z,1.50
2019-04-25T21:35:48.581Z,1.50
2019-04-25T21:38:17.283Z,1.50
2019-04-25T21:40:47.394Z,1.92
2019-04-25T21:43:17.746Z,1.52
2019-04-25T21:45:46.564Z,1.85
2019-04-25T21:48:15.169Z,1.87
2019-04-25T21:50:44.014Z,1.35
2019-04-25T21:53:12.615Z,1.45
2019-04-25T21:55:41.320Z,1.90
2019-04-25T21:58:10.072Z,1.67
2019-04-25T22:00:46.705Z,1.30
2019-04-25T22:03:17.430Z,1.62
2019-04-25T22:05:46.130Z,1.30
2019-04-25T22:08:14.741Z,1.40
2019-04-25T22:10:43.218Z,1.42
2019-04-25T22:13:16.798Z,1.45
2019-04-25T22:15:42.472Z,1.50
2019-04-25T22:18:10.988Z,1.80
2019-04-25T22:20:39.431Z,1.40
2019-04-25T22:23:08.139Z,1.92
2019-04-25T22:25:37.149Z,1.65
2019-04-25T22:28:05.847Z,1.62
2019-04-25T22:30:34.685Z,1.98
2019-04-25T22:33:08.234Z,1.70
2019-04-25T22:35:38.424Z,1.70
2019-04-25T22:38:08.234Z,1.92
2019-04-25T22:40:36.875Z,2.05
2019-04-25T22:43:05.679Z,1.62
2019-04-25T22:45:34.606Z,1.75
2019-04-25T22:48:03.337Z,1.75
2019-04-25T22:50:33.102Z,1.45
2019-04-25T22:53:02.066Z,1.57
2019-04-25T22:55:30.957Z,1.50
2019-04-25T22:57:59.371Z,1.65
2019-04-25T23:00:35.405Z,1.80
2019-04-25T23:03:06.001Z,1.82
2019-04-25T23:05:45.037Z,2.12
2019-04-25T23:08:13.952Z,1.80
2019-04-25T23:10:42.442Z,1.60
2019-04-25T23:13:11.000Z,1.47
2019-04-25T23:15:39.453Z,1.52
2019-04-25T23:18:09.271Z,2.15
2019-04-25T23:20:37.890Z,1.57
2019-04-25T23:23:07.653Z,1.80
2019-04-25T23:25:55.725Z,1.62
2019-04-25T23:28:26.151Z,1.60
2019-04-25T23:31:06.187Z,1.20
2019-04-25T23:33:34.875Z,2.12
2019-04-25T23:36:04.515Z,1.40
2019-04-25T23:38:33.999Z,1.50
2019-04-25T23:41:02.607Z,1.47
2019-04-25T23:43:31.025Z,1.57
2019-04-25T23:45:59.473Z,1.40
2019-04-25T23:48:28.086Z,0.95
2019-04-25T23:50:56.618Z,1.50
2019-04-25T23:53:25.217Z,1.35
2019-04-25T23:55:53.697Z,1.40
2019-04-25T23:58:22.180Z,1.47
